Flugplatz Burg Feuerstein
 
.... wo jeder bestens aufgehoben ist! 

 

DSC04520

 


Täglich sind wir von 08.30 bis 12.30 Uhr und von 13.00 bis 16.45 Uhr unter 09194 - 79 75 75 

oder 

rund um die Uhr per Diese E-Mail-Adresse ist vor Spambots geschützt! Zur Anzeige muss JavaScript eingeschaltet sein! zu erreichen!

 

Flugbetrieb an jedem fliegbaren Tag von 9 Uhr bis 18 Uhr - nach Absprache auch flexibel darüber hinaus ! 

 


 
 

Wir bieten professionelle und trotzdem sehr günstige Ausbildung in 4 Sparten an:

Motorflug Motorsegler Segelflug Ultraleicht

Bei unseren Gebühren gibt keine „versteckten Kosten“ wie

  • Baustunden oder finanzielle Ausgleiche dafür
  • Verpflichtung zu Diensten oder finanzielle Ausgleiche dafür
  • Umschulungs- oder Typengebühren

Ebenso gibt es bei uns keinerlei zeitlicher Verpflichtungen zur Teilnahme am Flugbetrieb!

Kümmern Sie sich nur um Ihre fliegerischen Ambitionen – wir unterstützen Sie dabei professionell, individuell, zielorientiert und maximal flexibel!

Feuerstein News Ticker

Die ersten Schneeflocken sind schon vorhergesagt und es ist eine Frage der Zeit, bis der Winter vollends da ist und uns eine erste Schneedecke beschert! Sofern es einen Bedarf gibt,...


mehr lesen ...
0

Webcam Blick N

webcam 2

Webcam Blick NO

webcam 1

METAR EDDN

[Quelle: ADDS]
METAR
EDDN 110950Z 27014KT 9999 BKN016 03/M00 Q1020 R28/19//95 NOSIG =
EDDN 110500Z 1106/1206 27012KT 9999 FEW015 BKN030 PROB30 TEMPO 1110/1116 30015G25KT 2000 SHSN BKN012TCU BECMG 1118/1120 27007KT PROB30 TEMPO 1200/1206 4000 -SN BKN012
TAF
EDDN 110500Z 1106/1206 27012KT 9999 FEW015 BKN030 PROB30 TEMPO 1110/1116 30015G25KT 2000 SHSN BKN012TCU BECMG 1118/1120 27007KT PROB30 TEMPO 1200/1206 4000 -SN BKN012 =
SR / SS: 07:03 / 15:14 UTC (EDQE 2018-12-11)

Wetter EDQE


Das Wetter heute
Das Wetter morgen